Terminal Aerodrome Forecast
Issued by NWS Flagstaff, AZ

Current Version | Previous Version | Text Only | Print | Product List | Glossary On
Versions: 1 2 3 4 5 6 7 8 9 10 11 12 13 14 15 16 17 18 19 20 21 22 23 24 25 26 27 28
000
FTUS45 KFGZ 021129
TAFINW
TAF
KINW 021129Z 0212/0312 12005KT P6SM SCT020
      TEMPO 0212/0214 BKN020
     FM021800 VRB05KT P6SM SCT060 SCT080
     FM022200 24008KT P6SM SCT060 BKN080
     FM030200 VRB05KT P6SM SCT080=

USA.gov is the U.S. government's official web portal to all federal, state and local government web resources and services.